Terminal Aerodrome Forecast
Issued by NWS

Home | Current Version | Previous Version | Text Only | Print | Product List | Glossary On
Versions: 1 2 3 4 5 6 7 8 9 10 11 12 13 14 15 16 17 18
000
FTUS41 KBGM 311735
TAFRME
TAF
KRME 311735Z 3118/0118 27010G16KT P6SM SCT050
     FM010200 10003KT P6SM BKN100
     FM011400 28010KT P6SM BKN060=

USA.gov is the U.S. government's official web portal to all federal, state and local government web resources and services.